createdAt,value
2018-02-09T00:00:04.126Z,127.50
2018-02-09T00:02:31.647Z,116.20
2018-02-09T00:04:59.141Z,114.85
2018-02-09T00:07:26.657Z,124.28
2018-02-09T00:09:54.168Z,127.93
2018-02-09T00:12:21.691Z,126.80
2018-02-09T00:14:49.189Z,114.12
2018-02-09T00:17:17.482Z,128.20
2018-02-09T00:19:44.981Z,111.80
2018-02-09T00:22:13.279Z,120.80
2018-02-09T00:24:40.806Z,121.78
2018-02-09T00:27:08.324Z,116.15
2018-02-09T00:29:36.627Z,118.57
2018-02-09T00:32:04.135Z,124.53
2018-02-09T00:34:31.672Z,120.85
2018-02-09T00:36:59.194Z,108.68
2018-02-09T00:39:26.737Z,115.70
2018-02-09T00:41:55.045Z,122.43
2018-02-09T00:44:22.575Z,118.00
2018-02-09T00:46:50.852Z,130.27
2018-02-09T00:49:19.149Z,119.22
2018-02-09T00:51:46.667Z,112.75
2018-02-09T00:54:14.189Z,113.15
2018-02-09T00:56:41.711Z,117.80
2018-02-09T00:59:10.017Z,116.93
2018-02-09T01:01:37.521Z,118.37
2018-02-09T01:04:05.048Z,110.30
2018-02-09T01:06:32.568Z,117.97
2018-02-09T01:09:00.095Z,103.12
2018-02-09T01:11:28.376Z,96.60
2018-02-09T01:13:56.688Z,112.00
2018-02-09T01:16:24.193Z,103.40
2018-02-09T01:18:51.715Z,103.90
2018-02-09T01:21:19.261Z,110.72
2018-02-09T01:23:46.761Z,121.18
2018-02-09T01:26:14.263Z,101.43
2018-02-09T01:28:41.816Z,102.03
2018-02-09T01:31:10.101Z,95.82
2018-02-09T01:33:37.625Z,101.93
2018-02-09T01:36:05.172Z,100.93
2018-02-09T01:38:32.696Z,106.47
2018-02-09T01:41:00.216Z,105.03
2018-02-09T01:43:28.523Z,100.97
2018-02-09T01:45:56.039Z,94.05
2018-02-09T01:48:23.564Z,93.40
2018-02-09T01:50:51.106Z,102.87
2018-02-09T01:53:18.666Z,96.00
2018-02-09T01:55:46.172Z,101.55
2018-02-09T01:58:13.725Z,104.85
2018-02-09T02:00:41.253Z,111.55
2018-02-09T02:03:08.780Z,113.28
2018-02-09T02:05:36.324Z,112.75
2018-02-09T02:08:04.602Z,117.10
2018-02-09T02:10:32.883Z,104.03
2018-02-09T02:13:01.200Z,101.82
2018-02-09T02:15:28.702Z,96.85
2018-02-09T02:17:56.982Z,105.12
2018-02-09T02:20:25.290Z,92.65
2018-02-09T02:22:52.809Z,112.00
2018-02-09T02:25:20.328Z,104.00
2018-02-09T02:27:47.875Z,105.80
2018-02-09T02:30:15.380Z,104.78
2018-02-09T02:32:42.900Z,106.20
2018-02-09T02:35:10.428Z,100.80
2018-02-09T02:37:38.690Z,93.85
2018-02-09T02:40:06.964Z,98.60
2018-02-09T02:42:35.277Z,110.50
2018-02-09T02:45:02.787Z,119.47
2018-02-09T02:47:31.091Z,96.75
2018-02-09T02:49:59.377Z,98.75
2018-02-09T02:52:26.882Z,100.70
2018-02-09T02:54:54.397Z,96.55
2018-02-09T02:57:21.929Z,116.30
2018-02-09T02:59:50.198Z,104.87
2018-02-09T03:02:17.707Z,94.25
2018-02-09T03:04:45.252Z,91.90
2018-02-09T03:07:12.761Z,100.12
2018-02-09T03:09:40.271Z,96.90
2018-02-09T03:12:07.798Z,99.10
2018-02-09T03:14:36.076Z,99.05
2018-02-09T03:17:04.363Z,99.18
2018-02-09T03:19:31.907Z,109.90
2018-02-09T03:22:00.190Z,98.80
2018-02-09T03:24:28.465Z,103.28
2018-02-09T03:26:56.772Z,105.60
2018-02-09T03:29:24.274Z,97.97
2018-02-09T03:31:51.776Z,88.37
2018-02-09T03:34:19.302Z,94.13
2018-02-09T03:36:46.831Z,97.00
2018-02-09T03:39:14.334Z,97.50
2018-02-09T03:41:42.640Z,92.93
2018-02-09T03:44:10.156Z,98.82
2018-02-09T03:46:37.663Z,89.95
2018-02-09T03:49:05.186Z,100.68
2018-02-09T03:51:33.458Z,99.97
2018-02-09T03:54:01.736Z,105.68
2018-02-09T03:56:30.049Z,100.10
2018-02-09T03:58:57.579Z,95.93
2018-02-09T04:01:25.865Z,93.82
2018-02-09T04:03:53.421Z,99.20
2018-02-09T04:06:21.694Z,108.03
2018-02-09T04:08:49.964Z,95.05
2018-02-09T04:11:18.263Z,86.75
2018-02-09T04:13:45.775Z,102.35
2018-02-09T04:16:13.308Z,105.85
2018-02-09T04:18:40.846Z,98.30
2018-02-09T04:21:08.360Z,93.65
2018-02-09T04:23:35.866Z,113.35
2018-02-09T04:26:03.398Z,111.03
2018-02-09T04:28:31.669Z,108.70
2018-02-09T04:30:59.939Z,100.07
2018-02-09T04:33:28.259Z,104.82
2018-02-09T04:35:55.757Z,96.82
2018-02-09T04:38:23.273Z,95.38
2018-02-09T04:40:50.816Z,107.47
2018-02-09T04:43:18.335Z,91.68
2018-02-09T04:45:45.851Z,93.25
2018-02-09T04:48:13.386Z,105.37
2018-02-09T04:50:40.886Z,104.45
2018-02-09T04:53:08.381Z,97.43
2018-02-09T04:55:36.702Z,93.62
2018-02-09T04:58:04.197Z,91.43
2018-02-09T05:00:31.703Z,111.93
2018-02-09T05:02:59.248Z,95.40
2018-02-09T05:05:26.754Z,100.62
2018-02-09T05:07:54.270Z,108.45
2018-02-09T05:10:21.799Z,94.00
2018-02-09T05:12:49.325Z,90.87
2018-02-09T05:15:16.839Z,91.20
2018-02-09T05:17:44.400Z,113.85
2018-02-09T05:20:11.911Z,108.37
2018-02-09T05:22:39.418Z,119.85
2018-02-09T05:25:06.954Z,120.90
2018-02-09T05:27:34.457Z,126.82
2018-02-09T05:30:01.958Z,126.32
2018-02-09T05:32:29.508Z,128.23
2018-02-09T05:34:57.028Z,142.70
2018-02-09T05:37:24.552Z,126.47
2018-02-09T05:39:52.866Z,123.87
2018-02-09T05:42:20.383Z,116.35
2018-02-09T05:44:48.667Z,105.47
2018-02-09T05:47:16.981Z,117.50
2018-02-09T05:49:44.482Z,109.97
2018-02-09T05:52:11.996Z,113.93
2018-02-09T05:54:39.522Z,111.85
2018-02-09T05:57:07.794Z,109.25
2018-02-09T05:59:36.089Z,111.28
2018-02-09T06:02:03.608Z,101.68
2018-02-09T06:04:31.130Z,121.03
2018-02-09T06:06:58.677Z,119.50
2018-02-09T06:09:26.195Z,116.00
2018-02-09T06:11:53.718Z,108.70
2018-02-09T06:14:21.238Z,110.97
2018-02-09T06:16:48.758Z,128.87
2018-02-09T06:19:16.314Z,116.90
2018-02-09T06:21:43.836Z,120.05
2018-02-09T06:24:11.365Z,118.78
2018-02-09T06:26:39.709Z,109.97
2018-02-09T06:29:07.219Z,119.18
2018-02-09T06:31:34.751Z,125.28
2018-02-09T06:34:03.034Z,113.88
2018-02-09T06:36:31.324Z,116.68
2018-02-09T06:38:58.855Z,124.38
2018-02-09T06:41:26.384Z,132.87
2018-02-09T06:43:54.283Z,116.97
2018-02-09T06:46:23.091Z,120.10
2018-02-09T06:48:50.632Z,126.53
2018-02-09T06:51:18.921Z,126.80
2018-02-09T06:53:47.209Z,119.00
2018-02-09T06:56:14.745Z,122.62
2018-02-09T06:58:43.023Z,105.87
2018-02-09T07:01:11.300Z,121.68
2018-02-09T07:03:39.595Z,127.50
2018-02-09T07:06:07.125Z,124.87
2018-02-09T07:08:34.649Z,129.52
2018-02-09T07:11:02.936Z,121.93
2018-02-09T07:13:30.464Z,131.30
2018-02-09T07:15:57.992Z,134.77
2018-02-09T07:18:26.277Z,129.10
2018-02-09T07:20:53.779Z,147.20
2018-02-09T07:23:21.318Z,146.68
2018-02-09T07:25:48.855Z,139.30
2018-02-09T07:28:16.383Z,152.77
2018-02-09T07:30:43.914Z,132.50
2018-02-09T07:33:11.433Z,160.12
2018-02-09T07:35:38.949Z,150.60
2018-02-09T07:38:06.472Z,155.60
2018-02-09T07:40:34.012Z,144.68
2018-02-09T07:43:01.527Z,157.12
2018-02-09T07:45:29.037Z,147.70
2018-02-09T07:47:56.572Z,149.23
2018-02-09T07:50:24.851Z,153.75
2018-02-09T07:52:52.401Z,162.68
2018-02-09T07:55:20.680Z,143.07
2018-02-09T07:57:48.964Z,152.40
2018-02-09T08:00:17.278Z,144.77
2018-02-09T08:02:44.804Z,136.25
2018-02-09T08:05:12.318Z,156.45
2018-02-09T08:07:39.867Z,146.40
2018-02-09T08:10:07.379Z,148.02
2018-02-09T08:12:34.901Z,154.40
2018-02-09T08:15:02.430Z,157.27
2018-02-09T08:17:29.936Z,158.40
2018-02-09T08:19:58.225Z,148.50
2018-02-09T08:22:26.514Z,161.10
2018-02-09T08:24:54.041Z,157.00
2018-02-09T08:27:22.310Z,159.75
2018-02-09T08:29:49.840Z,149.40
2018-02-09T08:32:17.405Z,166.10
2018-02-09T08:34:45.717Z,161.68
2018-02-09T08:37:14.005Z,162.35
2018-02-09T08:39:42.298Z,150.12
2018-02-09T08:42:09.822Z,163.65
2018-02-09T08:44:37.349Z,169.23
2018-02-09T08:47:04.902Z,166.00
2018-02-09T08:49:32.432Z,160.07
2018-02-09T08:51:59.976Z,172.43
2018-02-09T08:54:28.262Z,169.45
2018-02-09T08:56:55.788Z,168.85
2018-02-09T08:59:23.370Z,159.85
2018-02-09T09:01:50.846Z,163.48
2018-02-09T09:04:18.369Z,153.40
2018-02-09T09:06:46.670Z,174.65
2018-02-09T09:09:14.179Z,152.10
2018-02-09T09:11:41.682Z,152.18
2018-02-09T09:14:09.218Z,154.20
2018-02-09T09:16:36.749Z,155.27
2018-02-09T09:19:04.274Z,151.52
2018-02-09T09:21:31.786Z,148.55
2018-02-09T09:23:59.323Z,152.45
2018-02-09T09:26:26.848Z,156.90
2018-02-09T09:28:54.397Z,151.93
2018-02-09T09:31:21.925Z,151.90
2018-02-09T09:33:49.442Z,143.15
2018-02-09T09:36:16.985Z,157.18
2018-02-09T09:38:44.517Z,145.98
2018-02-09T09:41:12.803Z,145.07
2018-02-09T09:43:40.327Z,163.27
2018-02-09T09:46:07.840Z,151.85
2018-02-09T09:48:35.369Z,137.37
2018-02-09T09:51:03.648Z,137.93
2018-02-09T09:53:31.948Z,120.20
2018-02-09T09:55:59.455Z,133.77
2018-02-09T09:58:26.961Z,144.48
2018-02-09T10:00:54.491Z,142.10
2018-02-09T10:03:22.782Z,141.35
2018-02-09T10:05:50.310Z,133.57
2018-02-09T10:08:17.865Z,119.85
2018-02-09T10:10:45.381Z,127.68
2018-02-09T10:13:12.905Z,140.68
2018-02-09T10:15:41.200Z,138.18
2018-02-09T10:18:08.697Z,139.12
2018-02-09T10:20:36.199Z,135.05
2018-02-09T10:23:04.491Z,129.90
2018-02-09T10:25:32.016Z,124.18
2018-02-09T10:27:59.534Z,130.15
2018-02-09T10:30:27.100Z,124.60
2018-02-09T10:32:54.626Z,132.10
2018-02-09T10:35:22.145Z,135.52
2018-02-09T10:37:49.689Z,141.35
2018-02-09T10:40:17.189Z,126.22
2018-02-09T10:42:45.473Z,123.03
2018-02-09T10:45:13.011Z,134.35
2018-02-09T10:47:41.291Z,129.05
2018-02-09T10:50:09.555Z,115.35
2018-02-09T10:52:37.088Z,134.15
2018-02-09T10:55:04.602Z,114.37
2018-02-09T10:57:32.111Z,126.45
2018-02-09T10:59:59.653Z,173.73
2018-02-09T11:02:27.941Z,146.10
2018-02-09T11:04:55.439Z,138.18
2018-02-09T11:07:23.745Z,123.03
2018-02-09T11:09:51.246Z,125.22
2018-02-09T11:12:21.734Z,118.80
2018-02-09T11:14:49.276Z,113.65
2018-02-09T11:17:16.844Z,124.93
2018-02-09T11:19:45.090Z,116.45
2018-02-09T11:22:13.402Z,128.95
2018-02-09T11:24:40.922Z,116.78
2018-02-09T11:27:09.209Z,132.43
2018-02-09T11:29:37.498Z,118.13
2018-02-09T11:32:05.003Z,125.53
2018-02-09T11:34:32.498Z,112.78
2018-02-09T11:37:00.789Z,115.95
2018-02-09T11:39:28.287Z,123.30
2018-02-09T11:41:55.805Z,109.03
2018-02-09T11:44:23.354Z,113.80
2018-02-09T11:46:51.634Z,115.12
2018-02-09T11:49:19.161Z,106.95
2018-02-09T11:51:46.695Z,99.28
2018-02-09T11:54:14.972Z,117.22
2018-02-09T11:56:42.490Z,119.47
2018-02-09T11:59:10.036Z,103.00
2018-02-09T12:01:38.303Z,131.40
2018-02-09T12:04:05.809Z,99.20
2018-02-09T12:06:33.350Z,111.53
2018-02-09T12:09:00.850Z,108.07
2018-02-09T12:11:28.368Z,112.65
2018-02-09T12:13:55.898Z,104.60
2018-02-09T12:16:24.188Z,124.85
2018-02-09T12:18:52.454Z,107.15
2018-02-09T12:21:20.769Z,118.00
2018-02-09T12:23:48.280Z,109.18
2018-02-09T12:26:15.787Z,106.53
2018-02-09T12:28:43.313Z,108.97
2018-02-09T12:31:11.592Z,103.82
2018-02-09T12:33:39.858Z,97.10
2018-02-09T12:36:08.162Z,136.07
2018-02-09T12:38:35.689Z,116.47
2018-02-09T12:41:03.988Z,114.32
2018-02-09T12:43:31.498Z,108.87
2018-02-09T12:45:59.022Z,111.32
2018-02-09T12:48:26.531Z,103.45
2018-02-09T12:50:54.049Z,106.72
2018-02-09T12:53:21.578Z,102.68
2018-02-09T12:55:49.091Z,108.07
2018-02-09T12:58:16.594Z,102.53
2018-02-09T13:00:44.126Z,102.53
2018-02-09T13:03:11.639Z,105.85
2018-02-09T13:05:39.159Z,97.15
2018-02-09T13:08:07.460Z,112.12
2018-02-09T13:10:34.966Z,107.95
2018-02-09T13:13:06.115Z,102.95
2018-02-09T13:15:33.648Z,103.68
2018-02-09T13:18:01.143Z,104.72
2018-02-09T13:20:28.646Z,102.38
2018-02-09T13:26:03.180Z,114.60
2018-02-09T13:28:42.500Z,106.07
2018-02-09T13:31:10.799Z,120.87
2018-02-09T13:33:38.302Z,116.47
2018-02-09T13:36:05.845Z,104.97
2018-02-09T13:38:33.351Z,99.75
2018-02-09T13:41:01.628Z,122.20
2018-02-09T13:43:29.171Z,103.80
2018-02-09T13:45:57.438Z,123.82
2018-02-09T13:48:24.956Z,123.05
2018-02-09T13:50:52.479Z,109.05
2018-02-09T13:53:20.742Z,114.65
2018-02-09T13:55:49.008Z,116.40
2018-02-09T13:58:17.320Z,104.60
2018-02-09T14:00:44.826Z,122.22
2018-02-09T14:03:12.345Z,99.95
2018-02-09T14:05:39.878Z,110.22
2018-02-09T14:08:08.162Z,117.95
2018-02-09T14:10:35.685Z,110.10
2018-02-09T14:13:03.233Z,101.85
2018-02-09T14:15:30.749Z,113.30
2018-02-09T14:17:58.268Z,114.65
2018-02-09T14:20:25.817Z,109.97
2018-02-09T14:22:53.341Z,115.15
2018-02-09T14:25:20.861Z,122.93
2018-02-09T14:27:49.171Z,119.18
2018-02-09T14:30:16.670Z,161.55
2018-02-09T14:32:44.180Z,129.20
2018-02-09T14:35:11.724Z,97.75
2018-02-09T14:37:40.003Z,135.60
2018-02-09T14:40:07.529Z,149.15
2018-02-09T14:42:35.059Z,130.95
2018-02-09T14:45:02.569Z,128.40
2018-02-09T14:47:30.854Z,108.68
2018-02-09T14:49:58.378Z,112.10
2018-02-09T14:52:25.905Z,113.22
2018-02-09T14:54:53.437Z,121.43
2018-02-09T14:57:20.988Z,110.75
2018-02-09T14:59:48.509Z,124.47
2018-02-09T15:02:16.009Z,122.03
2018-02-09T15:04:43.555Z,126.82
2018-02-09T15:07:11.832Z,143.87
2018-02-09T15:09:40.117Z,119.20
2018-02-09T15:12:07.648Z,129.32
2018-02-09T15:14:35.918Z,124.95
2018-02-09T15:17:03.418Z,116.45
2018-02-09T15:19:30.942Z,114.60
2018-02-09T15:21:58.439Z,123.20
2018-02-09T15:24:25.964Z,118.13
2018-02-09T15:26:54.281Z,115.60
2018-02-09T15:29:21.796Z,118.22
2018-02-09T15:31:50.067Z,133.55
2018-02-09T15:34:17.633Z,111.05
2018-02-09T15:36:45.121Z,118.37
2018-02-09T15:39:12.622Z,119.85
2018-02-09T15:41:40.151Z,121.18
2018-02-09T15:44:07.661Z,125.38
2018-02-09T15:46:35.168Z,118.07
2018-02-09T15:49:02.703Z,112.72
2018-02-09T15:51:30.224Z,130.23
2018-02-09T15:53:57.725Z,123.90
2018-02-09T15:56:25.260Z,122.25
2018-02-09T15:58:53.544Z,123.68
2018-02-09T16:01:21.810Z,110.85
2018-02-09T16:03:50.126Z,121.70
2018-02-09T16:06:17.625Z,131.02
2018-02-09T16:08:45.133Z,124.65
2018-02-09T16:11:12.675Z,117.82
2018-02-09T16:13:40.941Z,118.45
2018-02-09T16:16:09.229Z,116.45
2018-02-09T16:18:37.547Z,131.48
2018-02-09T16:21:05.059Z,127.72
2018-02-09T16:23:33.344Z,113.20
2018-02-09T16:26:00.895Z,118.85
2018-02-09T16:28:29.170Z,124.80
2018-02-09T16:30:57.442Z,126.90
2018-02-09T16:33:25.739Z,114.45
2018-02-09T16:35:53.259Z,134.48
2018-02-09T16:38:20.778Z,117.43
2018-02-09T16:40:48.307Z,121.18
2018-02-09T16:43:16.572Z,110.07
2018-02-09T16:45:44.099Z,113.80
2018-02-09T16:48:11.635Z,117.55
2018-02-09T16:50:39.172Z,132.02
2018-02-09T16:53:06.695Z,119.70
2018-02-09T16:55:34.232Z,131.65
2018-02-09T16:58:01.751Z,170.85
2018-02-09T17:00:29.263Z,114.65
2018-02-09T17:02:56.781Z,112.35
2018-02-09T17:05:24.303Z,148.95
2018-02-09T17:07:52.587Z,142.18
2018-02-09T17:10:20.908Z,120.53
2018-02-09T17:12:48.512Z,116.25
2018-02-09T17:15:16.804Z,113.15
2018-02-09T17:17:45.304Z,121.70
2018-02-09T17:20:12.814Z,115.43
2018-02-09T17:22:40.341Z,116.78
2018-02-09T17:25:07.902Z,125.22
2018-02-09T17:27:35.416Z,160.60
2018-02-09T17:30:03.699Z,243.98
2018-02-09T17:32:31.240Z,209.45
2018-02-09T17:34:59.553Z,185.37
2018-02-09T17:37:27.075Z,161.95
2018-02-09T17:39:55.380Z,145.10
2018-02-09T17:42:22.881Z,127.47
2018-02-09T17:44:50.401Z,122.62
2018-02-09T17:47:17.930Z,112.40
2018-02-09T17:49:46.225Z,114.93
2018-02-09T17:52:13.753Z,110.80
2018-02-09T17:54:41.326Z,103.28
2018-02-09T17:57:09.616Z,117.47
2018-02-09T17:59:37.135Z,113.30
2018-02-09T18:02:04.668Z,102.30
2018-02-09T18:04:32.182Z,111.43
2018-02-09T18:07:00.470Z,113.65
2018-02-09T18:09:28.024Z,107.65
2018-02-09T18:11:56.312Z,118.72
2018-02-09T18:14:23.818Z,131.77
2018-02-09T18:16:51.393Z,122.93
2018-02-09T18:19:18.915Z,126.57
2018-02-09T18:21:46.422Z,130.73
2018-02-09T18:24:14.726Z,127.87
2018-02-09T18:26:42.240Z,144.07
2018-02-09T18:29:09.746Z,136.60
2018-02-09T18:31:37.279Z,123.53
2018-02-09T18:34:04.820Z,111.07
2018-02-09T18:36:32.327Z,122.65
2018-02-09T18:38:59.931Z,114.80
2018-02-09T18:41:27.426Z,134.37
2018-02-09T18:43:54.969Z,113.10
2018-02-09T18:46:23.277Z,122.75
2018-02-09T18:48:50.788Z,117.53
2018-02-09T18:51:18.292Z,102.40
2018-02-09T18:53:45.825Z,103.82
2018-02-09T18:56:14.112Z,114.70
2018-02-09T18:58:41.637Z,102.45
2018-02-09T19:01:09.182Z,106.12
2018-02-09T19:03:36.686Z,105.12
2018-02-09T19:06:04.194Z,96.45
2018-02-09T19:08:31.727Z,99.93
2018-02-09T19:10:59.249Z,103.95
2018-02-09T19:13:27.543Z,104.70
2018-02-09T19:15:55.084Z,111.40
2018-02-09T19:18:23.360Z,91.90
2018-02-09T19:20:51.645Z,83.35
2018-02-09T19:23:19.204Z,87.32
2018-02-09T19:25:47.470Z,72.15
2018-02-09T19:28:15.748Z,77.53
2018-02-09T19:30:44.057Z,70.60
2018-02-09T19:33:11.613Z,79.20
2018-02-09T19:35:39.120Z,72.22
2018-02-09T19:38:06.658Z,67.53
2018-02-09T19:40:34.167Z,62.13
2018-02-09T19:43:02.435Z,55.15
2018-02-09T19:45:30.815Z,66.00
2018-02-09T19:47:58.289Z,56.45
2018-02-09T19:50:25.798Z,57.47
2018-02-09T19:52:53.325Z,63.85
2018-02-09T19:55:20.846Z,50.58
2018-02-09T19:57:49.132Z,53.92
2018-02-09T20:00:17.425Z,59.80
2018-02-09T20:02:44.935Z,54.70
2018-02-09T20:05:12.460Z,50.60
2018-02-09T20:07:40.016Z,58.15
2018-02-09T20:10:07.522Z,59.17
2018-02-09T20:12:35.045Z,60.80
2018-02-09T20:15:02.588Z,61.78
2018-02-09T20:17:30.093Z,78.10
2018-02-09T20:19:57.688Z,59.47
2018-02-09T20:22:25.240Z,68.75
2018-02-09T20:24:52.750Z,67.37
2018-02-09T20:27:20.252Z,77.25
2018-02-09T20:29:48.567Z,64.78
2018-02-09T20:32:16.090Z,75.20
2018-02-09T20:34:43.599Z,55.80
2018-02-09T20:37:11.149Z,63.78
2018-02-09T20:39:38.654Z,41.97
2018-02-09T20:42:06.932Z,48.40
2018-02-09T20:44:35.257Z,53.15
2018-02-09T20:47:02.763Z,47.75
2018-02-09T20:49:31.049Z,49.25
2018-02-09T20:51:59.363Z,51.92
2018-02-09T20:54:26.865Z,47.95
2018-02-09T20:56:54.393Z,53.20
2018-02-09T20:59:21.939Z,78.32
2018-02-09T21:01:49.460Z,87.60
2018-02-09T21:04:17.761Z,64.50
2018-02-09T21:06:45.270Z,64.85
2018-02-09T21:09:12.833Z,65.12
2018-02-09T21:11:40.357Z,65.47
2018-02-09T21:14:08.636Z,55.67
2018-02-09T21:16:36.145Z,56.35
2018-02-09T21:19:04.423Z,49.83
2018-02-09T21:21:32.709Z,55.60
2018-02-09T21:24:00.227Z,57.95
2018-02-09T21:26:27.736Z,54.53
2018-02-09T21:28:55.263Z,44.83
2018-02-09T21:31:23.544Z,50.17
2018-02-09T21:33:51.844Z,59.20
2018-02-09T21:36:19.353Z,48.17
2018-02-09T21:38:46.900Z,51.10
2018-02-09T21:41:14.431Z,54.13
2018-02-09T21:43:41.978Z,41.15
2018-02-09T21:46:09.512Z,47.62
2018-02-09T21:48:37.782Z,41.72
2018-02-09T21:51:06.086Z,59.33
2018-02-09T21:53:33.596Z,40.25
2018-02-09T21:56:01.131Z,43.17
2018-02-09T21:58:28.636Z,54.08
2018-02-09T22:00:56.910Z,46.22
2018-02-09T22:03:25.225Z,50.12
2018-02-09T22:05:52.749Z,46.65
2018-02-09T22:08:21.052Z,50.97
2018-02-09T22:10:48.570Z,59.38
2018-02-09T22:13:16.097Z,69.85
2018-02-09T22:15:43.628Z,64.20
2018-02-09T22:18:11.152Z,53.03
2018-02-09T22:20:38.696Z,66.12
2018-02-09T22:23:06.208Z,51.97
2018-02-09T22:25:33.724Z,45.88
2018-02-09T22:28:01.256Z,56.85
2018-02-09T22:30:28.768Z,55.58
2018-02-09T22:32:56.345Z,49.75
2018-02-09T22:35:23.847Z,54.75
2018-02-09T22:37:51.357Z,48.42
2018-02-09T22:40:18.899Z,57.25
2018-02-09T22:42:47.165Z,52.35
2018-02-09T22:45:15.462Z,48.78
2018-02-09T22:47:42.987Z,61.60
2018-02-09T22:50:10.507Z,60.20
2018-02-09T22:52:38.026Z,60.95
2018-02-09T22:55:06.298Z,60.17
2018-02-09T22:57:34.600Z,61.90
2018-02-09T23:00:02.110Z,60.55
2018-02-09T23:02:29.609Z,67.05
2018-02-09T23:04:57.132Z,64.03
2018-02-09T23:07:24.647Z,62.70
2018-02-09T23:09:52.171Z,59.88
2018-02-09T23:12:20.452Z,48.47
2018-02-09T23:14:47.971Z,57.38
2018-02-09T23:22:57.799Z,64.00
2018-02-09T23:25:25.328Z,69.20
2018-02-09T23:27:52.829Z,72.65
2018-02-09T23:30:20.375Z,62.33
2018-02-09T23:32:47.896Z,56.05
2018-02-09T23:35:15.430Z,61.83
2018-02-09T23:37:42.951Z,66.18
2018-02-09T23:40:10.484Z,61.20
2018-02-09T23:42:38.753Z,62.40
2018-02-09T23:45:06.274Z,65.50
2018-02-09T23:47:34.549Z,59.58
2018-02-09T23:52:54.667Z,54.53
2018-02-09T23:55:22.960Z,65.55
2018-02-09T23:57:50.481Z,60.25
